• Join FlightAware (Why Join?)
  • Login
  • US Flag 
05:29AM EDT


 

Airport Tracker/Info


-or-


 

Live Flight TrackerFlight Track Log ✈ VH-FMY ✈ 30-Jun-2013 ✈ YPJT / JAD - YBUN / BUY

Flight Track Log - Related Links

Times and Time Zones

All times are in EDT time to prevent confusion due to time zone crossing. See the VH-FMY flight status page for this flight to view local times or setup timezone preferences in your user account.

Time Position Orientation Groundspeed Altitude Reporting Facility
EDT Latitude Longitude Course Direction KTS MPH feet Rate Location/Type
10:13AM -32.1097 115.8601 201° Southwest 103 119 900  Level Aus ATC (RADAR)
10:14AM -32.1382 115.8475 201° Southwest 109 125 1,800 780 Climbing Aus ATC (RADAR)
10:15AM -32.1716 115.8435 186° South 114 131 2,700 780 Climbing Aus ATC (RADAR)
10:16AM -32.2067 115.8359 190° South 119 137 3,600 780 Climbing Aus ATC (RADAR)
10:18AM -32.2441 115.8286 189° South 126 145 4,500 780 Climbing Aus ATC (RADAR)
10:21AM -32.4457 115.8316 179° South 4,500  Level Aus ATC (Calculated)
10:22AM -32.4779 115.8325 179° South 4,500  Level Aus ATC (Calculated)
10:23AM -32.5051 115.8332 179° South  Level FlightAware Approximate
10:23AM -32.5342 115.8228 119° Southeast  Level Aus ATC (Calculated)
10:24AM -32.5394 115.8341 179° South  Level FlightAware Approximate
10:24AM -32.5342 115.8228 20° North  Level Aus ATC (Calculated)
10:25AM -32.4933 115.8407 20° North  Level FlightAware Approximate
10:26AM -32.4765 115.8480 20° North  Level FlightAware Approximate
10:27AM -32.5146 115.8325 189° South  Level FlightAware Approximate
10:28AM -32.5570 115.8249 189° South  Level FlightAware Approximate
10:29AM -32.5995 115.8174 189° South  Level FlightAware Approximate
10:30AM -32.6419 115.8098 189° South  Level FlightAware Approximate
10:31AM -32.6843 115.8022 189° South  Level FlightAware Approximate
10:32AM -32.7267 115.7946 189° South  Level FlightAware Approximate
10:33AM -32.7691 115.7870 189° South  Level FlightAware Approximate
10:34AM -32.8115 115.7794 189° South  Level FlightAware Approximate
10:35AM -32.8539 115.7718 189° South  Level FlightAware Approximate
10:36AM -32.8963 115.7642 189° South  Level FlightAware Approximate
10:37AM -32.9387 115.7566 189° South  Level FlightAware Approximate
10:38AM -32.9812 115.7489 189° South  Level FlightAware Approximate
10:39AM -33.0236 115.7413 189° South  Level FlightAware Approximate
10:40AM -33.0660 115.7336 189° South  Level FlightAware Approximate
10:41AM -33.1084 115.7260 189° South  Level FlightAware Approximate
10:42AM -33.1508 115.7183 189° South  Level FlightAware Approximate
10:43AM -33.1932 115.7106 189° South  Level FlightAware Approximate
10:44AM -33.2356 115.7030 189° South  Level FlightAware Approximate
10:45AM -33.2780 115.6953 189° South  Level FlightAware Approximate
10:46AM -33.3204 115.6876 189° South  Level FlightAware Approximate
10:47AM -33.3628 115.6799 189° South  Level FlightAware Approximate
10:48AM -33.3781 115.6771 189° South  Level FlightAware Approximate
10:49AM -33.3781 115.6785 189° South  Level Estimated
10:50AM -33.3781 115.6771 189° South  Level FlightAware Approximate